METAR AND TAF INFORMATION
METAR FOR EKVG
ADDS - METARS form results

(2317 UTC 24 October 2020)
Data provider http://aviationweather.gov/metar/data/
 
METAR text: EKVG 242250Z AUTO 14018G29KT 9999 BKN031/// 08/05 Q0976
Conditions at: EKVG (SORVAAG/VAGAR , DK) observed 2250 UTC 24 October 2020
Temperature: 8.0°C (46°F)
Dewpoint: 5.0°C (41°F) [RH = 81%]
Pressure (altimeter): 28.82 inches Hg (976.0 mb)
Winds: from the SE (140 degrees) at 21 MPH (18 knots; 9.3 m/s)
gusting to 33 MPH (29 knots; 14.9 m/s)
Visibility: 6 or more miles (10+ km)
Ceiling: 3100 feet AGL
Clouds: broken clouds at 3100 feet AGL
Weather: no significant weather observed at this time

METAR text: EKVG 242220Z AUTO 13017KT 090V170 9999 BKN030/// 08/05 Q0976
Conditions at: EKVG (SORVAAG/VAGAR , DK) observed 2220 UTC 24 October 2020
Temperature: 8.0°C (46°F)
Dewpoint: 5.0°C (41°F) [RH = 81%]
Pressure (altimeter): 28.82 inches Hg (976.0 mb)
Winds: from the SE (130 degrees) at 20 MPH (17 knots; 8.7 m/s)
Visibility: 6 or more miles (10+ km)
Ceiling: 3000 feet AGL
Clouds: broken clouds at 3000 feet AGL
Weather: no significant weather observed at this time

Forecast for: EKVG (SORVAAG/VAGAR , DK)
Text: TAF EKVG 241422Z 2415/2421 15015KT 9999 BKN024
Forecast period: 1500 to 2100 UTC 24 October 2020
Forecast type: FROM: standard forecast or significant change
Winds: from the SSE (150 degrees) at 17 MPH (15 knots; 7.7 m/s)
Visibility: 6 or more miles (10+ km)
Ceiling: 2400 feet AGL
Clouds: broken clouds at 2400 feet AGL
Weather: no significant weather forecast for this period
Text: TEMPO 2415/2418 15022G35KT 4000 SHRA SCT014CB
Forecast period: 1500 to 1800 UTC 24 October 2020
Forecast type: TEMPORARY: The following changes expected for less than half the time period
Winds: from the SSE (150 degrees) at 25 MPH (22 knots; 11.3 m/s)
gusting to 40 MPH (35 knots; 18.0 m/s)
Visibility: 2.49 miles (4.01 km)
Ceiling: at least 12,000 feet AGL
Clouds: scattered clouds at 1400 feet AGL
Weather: SHRA  (rain showers)
Text: PROB30
Forecast period: 1500 to 2100 UTC 24 October 2020
Forecast type: TEMPORARY: The following changes expected for less than half the time period
Visibility: 1.55 miles (2.49 km)
Ceiling: 1100 feet AGL
Clouds: broken clouds at 1100 feet AGL
Weather: TSRA  (rain associated with thunderstorm(s))

 AIRPORT MAP

 RUNWAY INFORMATION
Runway 13 Runway length 5902 ft Runway width 98 ft
Runway elevation 268 ft Runway displaced threshold 0 ft Runway heading 118
Runway 31 Runway length 5902 ft Runway width 98 ft
Runway elevation 252 ft Runway displaced threshold 0 ft Runway heading 298

 AIRPORT FREQUENCIES
Type AFIS Name AFIS Frequency 124.85 MHZ

 AIRPORT NEAR NAVIGATION AIDS
Type NDB Name Myggenes Frequency 337 KHZ
Type NDB Name Nolso Frequency 404 KHZ
Type NDB Name Vagar Frequency 348 KHZ



Powered by Virtual Airlines Manager [v2.6.2]